Time;durP1;ratioP1;P1;durP2;ratioP2;P2;SDS_P1;SDS_P2;PMS_P1;PMS_P2;Temp;Humidity;BMP_temperature;BMP_pressure;BME280_temperature;BME280_humidity;BME280_pressure;Samples;Min_cycle;Max_cycle;Signal;HPM_P1;HPM_P2
2022/07/31 00:01:13;;;;;;;6.32;5.35;;;;;;;;;;5073416;28;20051;-75
2022/07/31 00:03:39;;;;;;;5.47;4.97;;;;;;;;;;5073648;28;20112;-75
2022/07/31 00:06:04;;;;;;;5.00;4.47;;;;;;;;;;5073510;28;20150;-75
2022/07/31 00:08:29;;;;;;;5.60;4.97;;;;;;;;;;5074432;28;20036;-75
2022/07/31 00:10:55;;;;;;;5.82;5.10;;;;;;;;;;5073214;28;20020;-75
2022/07/31 00:13:21;;;;;;;4.95;4.38;;;;;;;;;;5074622;28;20024;-75
2022/07/31 00:15:46;;;;;;;5.78;5.20;;;;;;;;;;5074325;28;20028;-75
2022/07/31 00:18:11;;;;;;;6.40;4.60;;;;;;;;;;5074853;28;20350;-75
2022/07/31 00:20:37;;;;;;;4.95;4.13;;;;;;;;;;5074480;28;20023;-75
2022/07/31 00:23:02;;;;;;;4.55;4.18;;;;;;;;;;5074141;28;20439;-75
2022/07/31 00:25:28;;;;;;;4.90;4.15;;;;;;;;;;5074040;28;20016;-75
2022/07/31 00:27:53;;;;;;;4.75;4.22;;;;;;;;;;5074066;28;20025;-75
2022/07/31 00:30:18;;;;;;;5.05;4.30;;;;;;;;;;5073069;28;20508;-75
2022/07/31 00:32:44;;;;;;;5.22;4.45;;;;;;;;;;5073999;28;20477;-75
2022/07/31 00:35:10;;;;;;;4.88;4.18;;;;;;;;;;5074023;28;20158;-75
2022/07/31 00:37:36;;;;;;;4.88;4.38;;;;;;;;;;5071760;28;20077;-75
2022/07/31 00:40:04;;;;;;;4.32;3.92;;;;;;;;;;5074255;28;20377;-75
2022/07/31 00:42:29;;;;;;;5.00;4.35;;;;;;;;;;5073876;28;20036;-75
2022/07/31 00:44:55;;;;;;;4.57;4.18;;;;;;;;;;5073806;28;20476;-75
2022/07/31 00:47:20;;;;;;;5.00;4.60;;;;;;;;;;5074151;28;20416;-75
2022/07/31 00:49:46;;;;;;;4.47;4.07;;;;;;;;;;5072531;28;20020;-75
2022/07/31 00:52:11;;;;;;;4.97;4.25;;;;;;;;;;5072344;28;20060;-75
2022/07/31 00:54:37;;;;;;;4.50;4.20;;;;;;;;;;5072627;28;20028;-75
2022/07/31 00:57:03;;;;;;;3.35;3.05;;;;;;;;;;5072413;28;20063;-75
2022/07/31 00:59:29;;;;;;;4.47;3.60;;;;;;;;;;5072441;28;20074;-75
2022/07/31 01:01:55;;;;;;;3.45;3.15;;;;;;;;;;5072451;28;20099;-75
2022/07/31 01:04:20;;;;;;;4.47;3.47;;;;;;;;;;5072306;28;20055;-75
2022/07/31 01:06:46;;;;;;;5.85;3.22;;;;;;;;;;5072335;28;20091;-75
2022/07/31 01:09:13;;;;;;;3.78;3.35;;;;;;;;;;5072293;28;20513;-75
2022/07/31 01:11:52;;;;;;;3.67;3.38;;;;;;;;;;5072281;28;20021;-75
2022/07/31 01:14:20;;;;;;;3.40;3.20;;;;;;;;;;5072629;28;20105;-75
2022/07/31 01:16:47;;;;;;;4.47;3.65;;;;;;;;;;5072304;28;20024;-75
2022/07/31 01:19:30;;;;;;;3.90;3.63;;;;;;;;;;5072916;28;20035;-75
2022/07/31 01:22:02;;;;;;;4.05;3.30;;;;;;;;;;5073684;28;20032;-75
2022/07/31 01:24:48;;;;;;;4.57;3.10;;;;;;;;;;5055776;28;20029;-75
2022/07/31 01:27:37;;;;;;;3.45;3.15;;;;;;;;;;5072156;28;20480;-75
2022/07/31 01:30:03;;;;;;;3.38;3.17;;;;;;;;;;5072641;28;20025;-75
2022/07/31 01:32:35;;;;;;;3.17;2.97;;;;;;;;;;5072703;28;20407;-75
2022/07/31 01:35:23;;;;;;;3.25;2.92;;;;;;;;;;5072312;28;20032;-75
2022/07/31 01:37:53;;;;;;;3.58;3.28;;;;;;;;;;5072072;28;20029;-75
2022/07/31 01:40:24;;;;;;;3.47;3.17;;;;;;;;;;5072022;28;20054;-75
2022/07/31 01:42:50;;;;;;;;;;;;;;;;;;5072453;28;20028;-75
2022/07/31 01:45:18;;;;;;;2.60;2.40;;;;;;;;;;5056339;28;20370;-75
2022/07/31 01:47:44;;;;;;;2.33;2.22;;;;;;;;;;5071955;28;20028;-75
2022/07/31 01:50:11;;;;;;;2.45;2.28;;;;;;;;;;5058723;28;20051;-75
2022/07/31 01:52:40;;;;;;;1.77;1.60;;;;;;;;;;5059375;28;20151;-75
2022/07/31 01:55:08;;;;;;;1.83;1.73;;;;;;;;;;5076138;28;20379;-75
2022/07/31 01:57:33;;;;;;;1.75;1.65;;;;;;;;;;5059074;28;20104;-75
2022/07/31 02:00:03;;;;;;;1.30;1.20;;;;;;;;;;5075679;28;20032;-75
2022/07/31 02:02:46;;;;;;;1.10;1.10;;;;;;;;;;5075582;28;20107;-75
2022/07/31 02:05:13;;;;;;;2.15;1.08;;;;;;;;;;5058933;28;20558;-75
2022/07/31 02:07:39;;;;;;;1.52;0.93;;;;;;;;;;5075517;28;20044;-75
2022/07/31 02:10:07;;;;;;;1.00;0.60;;;;;;;;;;5075438;28;20654;-75
2022/07/31 02:12:33;;;;;;;0.55;0.55;;;;;;;;;;5058801;28;20048;-75
2022/07/31 02:14:59;;;;;;;1.25;0.52;;;;;;;;;;5075357;28;20483;-75
2022/07/31 02:17:25;;;;;;;0.40;0.40;;;;;;;;;;5075294;28;20020;-75
2022/07/31 02:20:11;;;;;;;0.45;0.40;;;;;;;;;;5035888;28;20547;-75
2022/07/31 02:22:37;;;;;;;0.45;0.45;;;;;;;;;;5075225;28;20032;-75
2022/07/31 02:25:04;;;;;;;0.35;0.35;;;;;;;;;;5075152;28;20456;-75
2022/07/31 02:27:32;;;;;;;0.47;0.40;;;;;;;;;;5075448;28;20031;-75
2022/07/31 02:29:59;;;;;;;0.35;0.35;;;;;;;;;;5075500;28;20017;-75
2022/07/31 02:32:24;;;;;;;0.30;0.30;;;;;;;;;;5076335;28;20032;-75
2022/07/31 02:34:51;;;;;;;0.30;0.30;;;;;;;;;;5058748;28;20020;-75
2022/07/31 02:37:17;;;;;;;0.30;0.30;;;;;;;;;;5074965;28;20031;-75
2022/07/31 02:39:43;;;;;;;0.30;0.30;;;;;;;;;;5074921;28;20020;-75
2022/07/31 02:42:09;;;;;;;0.38;0.38;;;;;;;;;;5074893;28;20036;-75
2022/07/31 02:44:36;;;;;;;0.38;0.38;;;;;;;;;;5074835;28;20028;-75
2022/07/31 02:47:04;;;;;;;0.30;0.30;;;;;;;;;;5058224;28;20024;-75
2022/07/31 02:49:32;;;;;;;0.28;0.28;;;;;;;;;;5058429;28;20017;-75
2022/07/31 02:51:58;;;;;;;0.28;0.28;;;;;;;;;;5074609;28;20048;-75
2022/07/31 02:54:24;;;;;;;0.28;0.28;;;;;;;;;;5074717;28;20035;-75
2022/07/31 02:56:51;;;;;;;1.50;0.45;;;;;;;;;;5074675;28;20039;-75
2022/07/31 02:59:16;;;;;;;0.30;0.30;;;;;;;;;;5057934;28;20024;-75
2022/07/31 03:02:02;;;;;;;1.60;0.40;;;;;;;;;;5074552;28;20437;-75
2022/07/31 03:04:29;;;;;;;0.40;0.40;;;;;;;;;;5074705;28;20173;-75
2022/07/31 03:06:55;;;;;;;2.13;0.60;;;;;;;;;;5057758;28;20078;-75
2022/07/31 03:09:20;;;;;;;0.93;0.38;;;;;;;;;;5074418;28;20028;-75
2022/07/31 03:11:49;;;;;;;0.30;0.30;;;;;;;;;;5074654;28;20099;-75
2022/07/31 03:14:19;;;;;;;1.27;0.30;;;;;;;;;;5074259;28;20561;-75
2022/07/31 03:16:46;;;;;;;0.30;0.30;;;;;;;;;;5074629;28;20033;-75
2022/07/31 03:19:12;;;;;;;1.20;0.30;;;;;;;;;;5074167;28;20036;-75
2022/07/31 03:21:37;;;;;;;1.20;0.30;;;;;;;;;;5075736;28;20031;-75
2022/07/31 03:24:03;;;;;;;1.55;0.50;;;;;;;;;;5074005;28;20032;-75
2022/07/31 03:26:29;;;;;;;0.30;0.30;;;;;;;;;;5074101;28;20023;-75
2022/07/31 03:28:55;;;;;;;1.10;0.70;;;;;;;;;;5073985;28;20158;-75
2022/07/31 03:31:20;;;;;;;0.30;0.30;;;;;;;;;;5057374;28;20449;-75
2022/07/31 03:33:46;;;;;;;0.30;0.28;;;;;;;;;;5057309;28;20031;-75
2022/07/31 03:36:13;;;;;;;1.85;0.40;;;;;;;;;;5073879;28;20085;-75
2022/07/31 03:38:39;;;;;;;0.30;0.30;;;;;;;;;;5073834;28;20029;-75
2022/07/31 03:41:04;;;;;;;0.50;0.50;;;;;;;;;;5074354;28;20085;-75
2022/07/31 03:43:31;;;;;;;0.77;0.30;;;;;;;;;;5075002;28;20518;-75
2022/07/31 03:45:57;;;;;;;0.50;0.20;;;;;;;;;;5073891;28;20025;-75
2022/07/31 03:48:23;;;;;;;0.30;0.30;;;;;;;;;;5073605;28;20118;-75
2022/07/31 03:50:49;;;;;;;0.20;0.20;;;;;;;;;;5056937;28;20025;-75
2022/07/31 03:53:15;;;;;;;0.60;0.30;;;;;;;;;;5073513;28;20369;-75
2022/07/31 03:55:43;;;;;;;0.30;0.28;;;;;;;;;;5073785;28;20101;-75
2022/07/31 03:58:09;;;;;;;0.20;0.20;;;;;;;;;;5073387;28;20393;-75
2022/07/31 04:00:34;;;;;;;0.52;0.35;;;;;;;;;;5074884;28;20024;-75
2022/07/31 04:03:07;;;;;;;0.28;0.28;;;;;;;;;;5073300;28;20033;-75
2022/07/31 04:05:41;;;;;;;0.30;0.30;;;;;;;;;;5073172;28;20031;-75
2022/07/31 04:08:07;;;;;;;0.47;0.30;;;;;;;;;;5073218;28;20028;-75
2022/07/31 04:10:35;;;;;;;2.47;0.82;;;;;;;;;;5073144;28;20020;-75
2022/07/31 04:13:01;;;;;;;0.30;0.30;;;;;;;;;;5073200;28;20384;-75
2022/07/31 04:15:27;;;;;;;1.92;0.43;;;;;;;;;;5073085;28;20163;-75
2022/07/31 04:17:53;;;;;;;0.40;0.40;;;;;;;;;;5073051;28;20082;-75
2022/07/31 04:20:23;;;;;;;1.95;0.40;;;;;;;;;;5073028;28;20028;-75
2022/07/31 04:22:48;;;;;;;1.17;0.38;;;;;;;;;;5072930;28;20032;-75
2022/07/31 04:25:24;;;;;;;0.40;0.40;;;;;;;;;;5073097;28;20024;-75
2022/07/31 04:28:28;;;;;;;1.88;0.47;;;;;;;;;;5062100;28;20033;-75
2022/07/31 04:30:53;;;;;;;0.40;0.40;;;;;;;;;;5073086;28;20025;-75
2022/07/31 04:33:19;;;;;;;0.40;0.40;;;;;;;;;;5072802;28;20013;-75
2022/07/31 04:35:44;;;;;;;0.57;0.35;;;;;;;;;;5056090;28;20115;-75
2022/07/31 04:38:10;;;;;;;0.30;0.30;;;;;;;;;;5074008;28;20383;-75
2022/07/31 04:40:37;;;;;;;0.40;0.40;;;;;;;;;;5056040;28;20488;-75
2022/07/31 04:43:02;;;;;;;0.32;0.32;;;;;;;;;;5072660;28;20017;-75
2022/07/31 04:45:28;;;;;;;0.20;0.20;;;;;;;;;;5072579;28;20039;-75
2022/07/31 04:47:53;;;;;;;0.30;0.30;;;;;;;;;;5055804;28;20417;-75
2022/07/31 04:50:19;;;;;;;0.30;0.30;;;;;;;;;;5073122;28;20032;-75
2022/07/31 04:52:54;;;;;;;1.10;0.30;;;;;;;;;;5073659;28;20044;-75
2022/07/31 04:55:20;;;;;;;0.40;0.40;;;;;;;;;;5072758;28;20047;-75
2022/07/31 04:57:46;;;;;;;0.20;0.20;;;;;;;;;;5073031;28;20111;-75
2022/07/31 05:00:12;;;;;;;0.30;0.30;;;;;;;;;;5073007;28;20385;-75
2022/07/31 05:02:37;;;;;;;0.45;0.30;;;;;;;;;;5072383;28;20029;-75
2022/07/31 05:05:03;;;;;;;0.30;0.30;;;;;;;;;;5072590;28;20032;-75
2022/07/31 05:07:33;;;;;;;1.35;0.40;;;;;;;;;;5072981;28;20494;-75
2022/07/31 05:10:03;;;;;;;0.63;0.60;;;;;;;;;;5072636;28;20115;-75
2022/07/31 05:12:29;;;;;;;0.95;0.50;;;;;;;;;;5072583;28;20051;-75
2022/07/31 05:14:55;;;;;;;0.45;0.45;;;;;;;;;;5072324;28;20410;-75
2022/07/31 05:17:20;;;;;;;0.38;0.30;;;;;;;;;;5055609;28;20400;-75
2022/07/31 05:20:15;;;;;;;1.40;0.40;;;;;;;;;;5072498;28;20028;-75
2022/07/31 05:23:01;;;;;;;0.77;0.70;;;;;;;;;;5072009;28;20506;-75
2022/07/31 05:25:48;;;;;;;0.35;0.30;;;;;;;;;;5076034;28;20491;-76
2022/07/31 05:28:14;;;;;;;0.30;0.30;;;;;;;;;;5076604;28;20093;-75
2022/07/31 05:30:40;;;;;;;0.68;0.30;;;;;;;;;;5076302;28;20004;-75
2022/07/31 05:33:05;;;;;;;0.47;0.30;;;;;;;;;;5076170;28;20190;-75
2022/07/31 05:35:31;;;;;;;0.63;0.40;;;;;;;;;;5076199;28;20021;-75
2022/07/31 05:37:56;;;;;;;0.22;0.22;;;;;;;;;;5059439;28;20032;-75
2022/07/31 05:40:35;;;;;;;0.25;0.25;;;;;;;;;;5076290;28;20127;-75
2022/07/31 05:43:33;;;;;;;0.30;0.30;;;;;;;;;;5043620;28;20161;-75
2022/07/31 05:46:04;;;;;;;0.30;0.30;;;;;;;;;;5077139;28;20028;-75
2022/07/31 05:48:30;;;;;;;0.73;0.20;;;;;;;;;;5076788;28;20075;-75
2022/07/31 05:50:56;;;;;;;0.30;0.30;;;;;;;;;;5075786;28;20452;-75
2022/07/31 05:53:22;;;;;;;0.75;0.30;;;;;;;;;;5075792;28;20040;-75
2022/07/31 05:56:07;;;;;;;0.22;0.20;;;;;;;;;;5076873;28;20499;-75
2022/07/31 05:58:47;;;;;;;0.20;0.20;;;;;;;;;;5075745;28;20529;-75
2022/07/31 06:01:13;;;;;;;0.40;0.40;;;;;;;;;;5059081;28;20028;-75
2022/07/31 06:03:39;;;;;;;0.22;0.22;;;;;;;;;;5075660;28;20488;-75
2022/07/31 06:06:12;;;;;;;0.20;0.20;;;;;;;;;;5059906;28;20070;-75
2022/07/31 06:08:37;;;;;;;0.20;0.20;;;;;;;;;;5058916;28;20025;-75
2022/07/31 06:11:02;;;;;;;0.50;0.28;;;;;;;;;;5075517;28;20407;-75
2022/07/31 06:13:29;;;;;;;0.50;0.20;;;;;;;;;;5076596;28;20098;-75
2022/07/31 06:15:58;;;;;;;0.75;0.20;;;;;;;;;;5059391;28;20020;-75
2022/07/31 06:18:24;;;;;;;0.20;0.20;;;;;;;;;;5075375;28;20032;-75
2022/07/31 06:20:50;;;;;;;0.52;0.30;;;;;;;;;;5075328;28;20013;-75
2022/07/31 06:23:16;;;;;;;0.60;0.30;;;;;;;;;;5075269;28;20070;-75
2022/07/31 06:25:42;;;;;;;0.20;0.20;;;;;;;;;;5075436;28;20025;-75
2022/07/31 06:28:08;;;;;;;0.20;0.20;;;;;;;;;;5075186;28;20025;-75
2022/07/31 06:30:33;;;;;;;0.30;0.30;;;;;;;;;;5075168;28;20013;-75
2022/07/31 06:32:58;;;;;;;0.95;0.30;;;;;;;;;;5075114;28;20438;-75
2022/07/31 06:35:26;;;;;;;0.20;0.20;;;;;;;;;;5076175;28;20016;-75
2022/07/31 06:38:24;;;;;;;0.20;0.20;;;;;;;;;;5075271;28;20025;-75
2022/07/31 06:44:29;;;;;;;0.30;0.20;;;;;;;;;;5034352;28;20524;-75
2022/07/31 06:47:13;;;;;;;0.68;0.30;;;;;;;;;;5076950;28;20132;-75
2022/07/31 06:49:56;;;;;;;0.30;0.30;;;;;;;;;;5076616;28;20054;-75
2022/07/31 06:52:25;;;;;;;0.20;0.20;;;;;;;;;;5074549;28;20048;-75
2022/07/31 06:54:51;;;;;;;0.20;0.20;;;;;;;;;;5074983;28;20086;-75
2022/07/31 06:57:17;;;;;;;0.20;0.20;;;;;;;;;;5076200;28;20040;-75
2022/07/31 06:59:42;;;;;;;0.22;0.22;;;;;;;;;;5074636;28;20034;-75
2022/07/31 07:02:08;;;;;;;0.20;0.20;;;;;;;;;;5074572;28;20482;-75
2022/07/31 07:04:33;;;;;;;0.30;0.30;;;;;;;;;;5075955;28;20020;-76
2022/07/31 07:06:59;;;;;;;0.35;0.20;;;;;;;;;;5076022;28;20067;-75
2022/07/31 07:09:24;;;;;;;0.28;0.20;;;;;;;;;;5074413;28;20131;-75
2022/07/31 07:11:49;;;;;;;0.15;0.15;;;;;;;;;;5074360;28;20079;-75
2022/07/31 07:14:15;;;;;;;0.20;0.20;;;;;;;;;;5074569;28;20017;-75
2022/07/31 07:16:41;;;;;;;0.30;0.20;;;;;;;;;;5074256;28;20024;-75
2022/07/31 07:19:06;;;;;;;0.63;0.40;;;;;;;;;;5074245;28;20448;-75
2022/07/31 07:21:31;;;;;;;0.30;0.30;;;;;;;;;;5074200;28;20028;-75
2022/07/31 07:23:57;;;;;;;0.30;0.30;;;;;;;;;;5074457;28;20039;-75
2022/07/31 07:26:25;;;;;;;0.50;0.50;;;;;;;;;;5075364;28;20342;-75
2022/07/31 07:28:51;;;;;;;0.40;0.40;;;;;;;;;;5074315;28;20044;-75
2022/07/31 07:31:17;;;;;;;0.40;0.40;;;;;;;;;;5074002;28;20024;-75
2022/07/31 07:33:42;;;;;;;0.40;0.40;;;;;;;;;;5074772;28;20020;-75
2022/07/31 07:36:13;;;;;;;0.60;0.60;;;;;;;;;;5074049;28;20028;-75
2022/07/31 07:38:39;;;;;;;0.85;0.60;;;;;;;;;;5073827;28;20523;-75
2022/07/31 07:41:04;;;;;;;1.38;0.60;;;;;;;;;;5073804;28;20041;-75
2022/07/31 07:43:29;;;;;;;0.43;0.43;;;;;;;;;;5075315;28;20115;-75
2022/07/31 07:45:55;;;;;;;0.50;0.50;;;;;;;;;;5056939;28;20024;-75
2022/07/31 07:48:20;;;;;;;1.88;1.13;;;;;;;;;;5073151;28;20497;-75
2022/07/31 07:51:11;;;;;;;0.50;0.50;;;;;;;;;;5073465;28;20048;-75
2022/07/31 07:53:50;;;;;;;0.50;0.50;;;;;;;;;;5058735;28;20529;-75
2022/07/31 07:56:35;;;;;;;0.43;0.43;;;;;;;;;;5073813;28;20457;-75
2022/07/31 07:59:30;;;;;;;0.40;0.40;;;;;;;;;;5038344;28;20036;-75
2022/07/31 08:02:30;;;;;;;0.40;0.40;;;;;;;;;;5074646;28;20032;-75
2022/07/31 08:04:56;;;;;;;0.40;0.40;;;;;;;;;;5073502;28;20025;-75
2022/07/31 08:07:28;;;;;;;0.40;0.40;;;;;;;;;;5073095;28;20495;-75
2022/07/31 08:09:54;;;;;;;0.30;0.30;;;;;;;;;;5073229;28;20040;-76
2022/07/31 08:12:45;;;;;;;0.50;0.50;;;;;;;;;;5071503;28;20033;-75
2022/07/31 08:15:14;;;;;;;0.40;0.40;;;;;;;;;;5074359;28;20029;-75
2022/07/31 08:17:48;;;;;;;0.40;0.40;;;;;;;;;;5074649;28;20154;-75
2022/07/31 08:20:15;;;;;;;0.40;0.40;;;;;;;;;;5073329;28;20463;-75
2022/07/31 08:22:40;;;;;;;0.43;0.43;;;;;;;;;;5073045;28;20016;-75
2022/07/31 08:25:06;;;;;;;0.30;0.30;;;;;;;;;;5072892;28;20428;-75
2022/07/31 08:27:32;;;;;;;0.38;0.38;;;;;;;;;;5072913;28;20013;-75
2022/07/31 08:30:01;;;;;;;0.60;0.40;;;;;;;;;;5072832;28;20486;-75
2022/07/31 08:32:28;;;;;;;;;;;;;;;;;;5073271;28;20107;-75
2022/07/31 08:35:19;;;;;;;0.30;0.30;;;;;;;;;;5073065;28;19915;-75
2022/07/31 08:37:45;;;;;;;0.50;0.30;;;;;;;;;;5072719;28;20028;-75
2022/07/31 08:40:11;;;;;;;0.35;0.35;;;;;;;;;;5073958;28;20028;-75
2022/07/31 08:42:37;;;;;;;1.20;0.32;;;;;;;;;;5056017;28;20381;-75
2022/07/31 08:45:06;;;;;;;0.45;0.40;;;;;;;;;;5072605;28;20070;-75
2022/07/31 08:47:34;;;;;;;0.30;0.30;;;;;;;;;;5073187;28;20410;-75
2022/07/31 08:50:07;;;;;;;0.28;0.28;;;;;;;;;;5072828;28;20020;-75
2022/07/31 08:52:33;;;;;;;0.38;0.38;;;;;;;;;;5072320;28;20075;-75
2022/07/31 08:55:18;;;;;;;1.33;0.30;;;;;;;;;;5073589;28;20082;-75
2022/07/31 08:57:45;;;;;;;0.60;0.30;;;;;;;;;;5072388;28;20495;-75
2022/07/31 09:00:12;;;;;;;0.30;0.30;;;;;;;;;;5055078;28;20027;-75
2022/07/31 09:02:39;;;;;;;0.20;0.20;;;;;;;;;;5055753;28;20131;-75
2022/07/31 09:05:30;;;;;;;0.32;0.32;;;;;;;;;;5042632;28;20025;-75
2022/07/31 09:07:56;;;;;;;0.28;0.28;;;;;;;;;;5072317;28;20028;-75
2022/07/31 09:10:23;;;;;;;0.30;0.30;;;;;;;;;;5072351;28;20090;-75
2022/07/31 09:12:49;;;;;;;0.30;0.30;;;;;;;;;;5072322;28;20017;-75
2022/07/31 09:15:23;;;;;;;0.30;0.30;;;;;;;;;;5073566;28;20013;-75
2022/07/31 09:17:49;;;;;;;0.68;0.40;;;;;;;;;;5055615;28;20029;-75
2022/07/31 09:20:22;;;;;;;0.68;0.32;;;;;;;;;;5072253;28;20118;-75
2022/07/31 09:22:52;;;;;;;0.40;0.40;;;;;;;;;;5072393;28;20029;-75
2022/07/31 09:25:18;;;;;;;0.32;0.32;;;;;;;;;;5072141;28;20085;-75
2022/07/31 09:27:45;;;;;;;0.57;0.30;;;;;;;;;;5072180;28;20445;-75
2022/07/31 09:30:10;;;;;;;0.30;0.30;;;;;;;;;;5072161;28;20035;-75
2022/07/31 09:32:56;;;;;;;0.40;0.40;;;;;;;;;;5073959;28;20070;-75
2022/07/31 09:35:48;;;;;;;1.08;0.20;;;;;;;;;;5035719;28;20032;-75
2022/07/31 09:38:14;;;;;;;0.30;0.30;;;;;;;;;;5072081;28;20028;-75
2022/07/31 09:41:10;;;;;;;0.40;0.40;;;;;;;;;;5073161;28;20046;-75
2022/07/31 09:44:01;;;;;;;0.30;0.30;;;;;;;;;;5073462;28;20032;-75
2022/07/31 09:46:43;;;;;;;0.20;0.20;;;;;;;;;;5071912;28;20032;-75
2022/07/31 09:49:09;;;;;;;0.30;0.30;;;;;;;;;;5055322;28;20029;-75
2022/07/31 09:51:42;;;;;;;0.43;0.43;;;;;;;;;;5071756;28;20515;-75
2022/07/31 09:54:20;;;;;;;0.30;0.30;;;;;;;;;;5071931;28;20053;-75
2022/07/31 09:57:11;;;;;;;0.40;0.40;;;;;;;;;;5072188;28;20123;-75
2022/07/31 09:59:40;;;;;;;0.30;0.30;;;;;;;;;;5071861;28;20032;-75
2022/07/31 10:02:07;;;;;;;0.30;0.30;;;;;;;;;;5073071;28;20017;-75
2022/07/31 10:04:32;;;;;;;0.30;0.30;;;;;;;;;;5071724;28;20028;-75
2022/07/31 10:06:59;;;;;;;0.63;0.40;;;;;;;;;;5072021;28;20094;-75
2022/07/31 10:09:25;;;;;;;0.30;0.30;;;;;;;;;;5055121;28;20021;-75
2022/07/31 10:12:12;;;;;;;0.30;0.30;;;;;;;;;;5076107;28;20031;-75
2022/07/31 10:14:40;;;;;;;1.05;0.30;;;;;;;;;;5075399;28;20024;-75
2022/07/31 10:17:06;;;;;;;0.38;0.38;;;;;;;;;;5058765;28;20024;-75
2022/07/31 10:19:50;;;;;;;0.40;0.40;;;;;;;;;;5077417;28;20044;-75
2022/07/31 10:22:37;;;;;;;0.40;0.40;;;;;;;;;;5077136;28;20040;-75
2022/07/31 10:25:04;;;;;;;0.30;0.30;;;;;;;;;;5075229;28;20384;-75
2022/07/31 10:27:30;;;;;;;0.40;0.40;;;;;;;;;;5075239;28;20017;-75
2022/07/31 10:30:01;;;;;;;1.15;0.57;;;;;;;;;;5075445;28;20559;-75
2022/07/31 10:32:26;;;;;;;0.30;0.30;;;;;;;;;;5075116;28;20187;-75
2022/07/31 10:35:11;;;;;;;0.30;0.30;;;;;;;;;;5077216;28;20487;-75
2022/07/31 10:38:10;;;;;;;0.40;0.40;;;;;;;;;;5075066;28;20036;-75
2022/07/31 10:40:54;;;;;;;0.30;0.30;;;;;;;;;;5075010;28;20163;-75
2022/07/31 10:43:26;;;;;;;0.30;0.30;;;;;;;;;;5075190;28;20551;-75
2022/07/31 10:46:13;;;;;;;0.30;0.30;;;;;;;;;;5061309;28;20115;-75
2022/07/31 10:49:01;;;;;;;0.32;0.30;;;;;;;;;;5074862;28;20423;-75
2022/07/31 10:51:48;;;;;;;0.30;0.30;;;;;;;;;;5075125;28;20068;-75
2022/07/31 10:54:38;;;;;;;1.25;0.40;;;;;;;;;;5075779;28;20052;-75
2022/07/31 10:57:23;;;;;;;0.38;0.30;;;;;;;;;;5076487;28;20071;-75
2022/07/31 11:00:10;;;;;;;0.50;0.50;;;;;;;;;;5076704;28;20112;-75
2022/07/31 11:02:54;;;;;;;0.40;0.40;;;;;;;;;;5076344;28;20391;-75
2022/07/31 11:05:27;;;;;;;0.88;0.35;;;;;;;;;;5074447;28;20082;-75
2022/07/31 11:08:15;;;;;;;0.30;0.30;;;;;;;;;;5067638;28;20032;-75
2022/07/31 11:11:07;;;;;;;1.83;0.40;;;;;;;;;;5072466;28;20032;-75
2022/07/31 11:14:03;;;;;;;1.75;0.50;;;;;;;;;;5074366;28;20115;-75
2022/07/31 11:16:58;;;;;;;0.43;0.43;;;;;;;;;;5021148;28;20038;-75
2022/07/31 11:19:39;;;;;;;0.40;0.40;;;;;;;;;;5074275;28;20029;-75
2022/07/31 11:22:08;;;;;;;0.40;0.40;;;;;;;;;;5074545;28;20518;-75
2022/07/31 11:24:34;;;;;;;0.60;0.40;;;;;;;;;;5075384;28;20036;-75
2022/07/31 11:26:59;;;;;;;0.30;0.30;;;;;;;;;;5075949;28;20025;-75
2022/07/31 11:29:24;;;;;;;0.50;0.50;;;;;;;;;;5075354;28;20379;-75
2022/07/31 11:31:50;;;;;;;0.30;0.30;;;;;;;;;;5075323;28;20032;-75
2022/07/31 11:34:15;;;;;;;0.45;0.45;;;;;;;;;;5075488;28;20017;-75
2022/07/31 11:36:41;;;;;;;2.25;0.50;;;;;;;;;;5075257;28;20107;-75
2022/07/31 11:39:10;;;;;;;0.40;0.40;;;;;;;;;;5075142;28;20086;-75
2022/07/31 11:41:36;;;;;;;0.40;0.40;;;;;;;;;;5057152;28;20380;-75
2022/07/31 11:44:02;;;;;;;0.60;0.60;;;;;;;;;;5075059;28;20020;-75
2022/07/31 11:46:29;;;;;;;0.57;0.52;;;;;;;;;;5073666;28;20036;-75
2022/07/31 11:48:55;;;;;;;0.60;0.43;;;;;;;;;;5075237;28;20044;-75
2022/07/31 11:51:20;;;;;;;0.85;0.85;;;;;;;;;;5075104;28;20090;-75
2022/07/31 11:53:46;;;;;;;1.35;0.40;;;;;;;;;;5075128;28;20024;-75
2022/07/31 11:56:14;;;;;;;0.50;0.50;;;;;;;;;;5075037;28;20111;-75
2022/07/31 11:58:44;;;;;;;0.55;0.55;;;;;;;;;;5075020;28;20024;-75
2022/07/31 12:01:10;;;;;;;0.40;0.40;;;;;;;;;;5074941;28;20036;-75
2022/07/31 12:03:37;;;;;;;0.85;0.70;;;;;;;;;;5074953;28;20031;-75
2022/07/31 12:06:04;;;;;;;0.40;0.40;;;;;;;;;;5074524;28;20086;-75
2022/07/31 12:08:30;;;;;;;0.50;0.50;;;;;;;;;;5073662;28;20031;-75
2022/07/31 12:10:56;;;;;;;0.57;0.55;;;;;;;;;;5073213;28;20016;-75
2022/07/31 12:13:23;;;;;;;0.50;0.50;;;;;;;;;;5075024;28;20020;-75
2022/07/31 12:15:52;;;;;;;0.73;0.50;;;;;;;;;;5073168;28;20123;-75
2022/07/31 12:18:18;;;;;;;0.40;0.40;;;;;;;;;;5073114;28;20025;-75
2022/07/31 12:20:50;;;;;;;0.40;0.40;;;;;;;;;;5074611;28;20035;-75
2022/07/31 12:23:16;;;;;;;0.60;0.60;;;;;;;;;;5072966;28;20086;-75
2022/07/31 12:25:44;;;;;;;1.35;0.52;;;;;;;;;;5072976;28;20380;-75
2022/07/31 12:28:11;;;;;;;0.57;0.57;;;;;;;;;;5074438;28;20025;-75
2022/07/31 12:30:37;;;;;;;1.50;1.40;;;;;;;;;;5073551;28;20082;-75
2022/07/31 12:33:03;;;;;;;1.45;1.40;;;;;;;;;;5074030;28;20461;-75
2022/07/31 12:35:33;;;;;;;1.60;1.50;;;;;;;;;;5074084;28;20412;-75
2022/07/31 12:37:59;;;;;;;;;;;;;;;;;;5074456;28;20032;-75
2022/07/31 12:40:25;;;;;;;2.00;1.90;;;;;;;;;;5073948;28;20245;-75
2022/07/31 12:42:51;;;;;;;2.30;2.10;;;;;;;;;;5074193;28;20460;-75
2022/07/31 12:45:27;;;;;;;2.80;2.60;;;;;;;;;;5072570;28;20078;-75
2022/07/31 12:47:53;;;;;;;2.80;2.60;;;;;;;;;;5074126;28;20103;-75
2022/07/31 12:50:19;;;;;;;2.50;2.30;;;;;;;;;;5074152;28;20044;-75
2022/07/31 12:52:44;;;;;;;3.15;2.95;;;;;;;;;;5073573;28;20041;-75
2022/07/31 12:55:10;;;;;;;2.38;2.17;;;;;;;;;;5074345;28;20050;-75
2022/07/31 12:57:35;;;;;;;2.35;2.25;;;;;;;;;;5073988;28;20028;-75
2022/07/31 13:00:00;;;;;;;2.88;2.40;;;;;;;;;;5073751;28;20464;-75
2022/07/31 13:02:26;;;;;;;2.55;2.30;;;;;;;;;;5074244;28;20111;-75
2022/07/31 13:04:51;;;;;;;2.42;2.20;;;;;;;;;;5074163;28;20027;-75
2022/07/31 13:07:17;;;;;;;2.50;2.30;;;;;;;;;;5073635;28;20133;-75
2022/07/31 13:09:42;;;;;;;2.30;2.20;;;;;;;;;;5073914;28;20017;-75
2022/07/31 13:12:08;;;;;;;2.55;2.28;;;;;;;;;;5074166;28;20100;-75
2022/07/31 13:14:33;;;;;;;3.35;2.00;;;;;;;;;;5073879;28;20403;-75
2022/07/31 13:16:59;;;;;;;1.70;1.60;;;;;;;;;;5072305;28;20376;-75
2022/07/31 13:19:24;;;;;;;1.52;1.52;;;;;;;;;;5074095;28;20104;-75
2022/07/31 13:21:50;;;;;;;1.80;1.70;;;;;;;;;;5072907;28;20075;-75
2022/07/31 13:24:19;;;;;;;1.77;1.67;;;;;;;;;;5072155;28;20456;-75
2022/07/31 13:26:44;;;;;;;1.65;1.55;;;;;;;;;;5073782;28;20040;-75
2022/07/31 13:29:10;;;;;;;1.63;1.48;;;;;;;;;;5073710;28;20020;-75
2022/07/31 13:31:35;;;;;;;1.25;1.15;;;;;;;;;;5073633;28;20108;-75
2022/07/31 13:34:01;;;;;;;1.40;1.30;;;;;;;;;;5073377;28;20357;-75
2022/07/31 13:36:26;;;;;;;1.73;1.63;;;;;;;;;;5072193;28;20047;-75
2022/07/31 13:38:52;;;;;;;1.30;1.30;;;;;;;;;;5073372;28;20044;-75
2022/07/31 13:41:22;;;;;;;1.60;1.50;;;;;;;;;;5073582;28;20464;-75
2022/07/31 13:43:47;;;;;;;;;;;;;;;;;;5074066;28;20029;-75
2022/07/31 13:46:13;;;;;;;1.70;1.60;;;;;;;;;;5076599;28;19938;-75
2022/07/31 13:48:38;;;;;;;2.40;1.42;;;;;;;;;;5076635;28;20270;-75
2022/07/31 13:51:04;;;;;;;1.17;1.17;;;;;;;;;;5077372;28;20020;-76
2022/07/31 13:53:30;;;;;;;1.30;1.30;;;;;;;;;;5077680;28;20073;-75
2022/07/31 13:55:57;;;;;;;1.38;1.30;;;;;;;;;;5077402;28;20025;-75
2022/07/31 13:58:23;;;;;;;1.55;1.30;;;;;;;;;;5077655;28;20033;-75
2022/07/31 14:00:48;;;;;;;1.00;1.00;;;;;;;;;;5077548;28;20046;-75
2022/07/31 14:03:13;;;;;;;1.33;1.33;;;;;;;;;;5076405;28;20037;-75
2022/07/31 14:05:39;;;;;;;1.33;1.27;;;;;;;;;;5076877;28;20012;-75
2022/07/31 14:08:04;;;;;;;1.30;1.20;;;;;;;;;;5075616;28;20059;-75
2022/07/31 14:10:30;;;;;;;1.63;1.52;;;;;;;;;;5075957;28;20020;-75
2022/07/31 14:12:56;;;;;;;1.50;1.40;;;;;;;;;;5075634;28;20464;-75
2022/07/31 14:15:22;;;;;;;1.38;1.27;;;;;;;;;;5075463;28;20387;-75
2022/07/31 14:17:47;;;;;;;1.10;1.10;;;;;;;;;;5075496;28;20033;-75
2022/07/31 14:20:13;;;;;;;0.95;0.95;;;;;;;;;;5076684;28;20147;-75
2022/07/31 14:22:38;;;;;;;1.20;1.10;;;;;;;;;;5076906;28;20078;-75
2022/07/31 14:25:04;;;;;;;0.95;0.90;;;;;;;;;;5076465;28;20117;-75
2022/07/31 14:27:29;;;;;;;0.90;0.90;;;;;;;;;;5075376;28;20029;-75
2022/07/31 14:29:55;;;;;;;1.50;1.10;;;;;;;;;;5075266;28;20427;-75
2022/07/31 14:32:21;;;;;;;0.88;0.88;;;;;;;;;;5076484;28;20051;-75
2022/07/31 14:34:46;;;;;;;1.08;1.00;;;;;;;;;;5076399;28;20349;-75
2022/07/31 14:37:12;;;;;;;0.98;0.98;;;;;;;;;;5076658;28;20032;-75
2022/07/31 14:39:37;;;;;;;0.80;0.77;;;;;;;;;;5076302;28;20384;-75
2022/07/31 14:42:03;;;;;;;1.05;0.70;;;;;;;;;;5075013;28;20033;-75
2022/07/31 14:44:28;;;;;;;0.77;0.77;;;;;;;;;;5076737;28;20479;-75
2022/07/31 14:46:54;;;;;;;0.80;0.80;;;;;;;;;;5076154;28;20025;-75
2022/07/31 14:49:19;;;;;;;0.63;0.63;;;;;;;;;;5074966;28;20024;-75
2022/07/31 14:51:45;;;;;;;0.85;0.85;;;;;;;;;;5075885;28;20055;-75
2022/07/31 14:54:10;;;;;;;0.70;0.70;;;;;;;;;;5076557;28;20032;-75
2022/07/31 14:56:36;;;;;;;0.98;0.98;;;;;;;;;;5074937;28;20028;-75
2022/07/31 14:59:01;;;;;;;0.90;0.90;;;;;;;;;;5058111;28;20033;-75
2022/07/31 15:01:26;;;;;;;2.45;0.90;;;;;;;;;;5076218;28;20102;-75